Westville, Canada
Current Conditions -  °F | °C
As of 8:00 AM on Friday 28 Nov 2014 (Local Time) from CYYG Reporting Station
Snow Showers Snow Showers  
Wind Chill: 27°   Ceiling: 2800
Heat Index: 27°   Visibility: 15mi
Dew Point: 23°   Wind: 3mph
Humidity: 86%   Direction: 350°N
Pressure: 29.95"   Gusts: NA
Location:  45.55°N, 62.72°W
Report Text: CYYG 281200Z 35003KT 310V020 15SM -SHSN OVC028 M03/M05 A2995 RMK SC8 PCPN VRY LGT SLP145
Loading
Personal Weather Stations






























Interactive Weather Map New forecast layout! Learn more

10-Day Weather Forecast

Advertisements
Track Severe Weather on mobile